createdAt,value
2023-04-02T00:03:10.632Z,7.58
2023-04-02T00:07:33.687Z,7.49
2023-04-02T00:11:44.055Z,7.37
2023-04-02T00:15:54.306Z,7.23
2023-04-02T00:20:06.823Z,7.11
2023-04-02T00:24:18.606Z,6.97
2023-04-02T00:28:27.433Z,6.77
2023-04-02T00:32:36.729Z,6.64
2023-04-02T00:36:46.780Z,6.60
2023-04-02T00:40:57.584Z,6.53
2023-04-02T00:45:06.793Z,6.46
2023-04-02T00:49:20.742Z,6.46
2023-04-02T00:53:30.816Z,6.38
2023-04-02T00:57:38.835Z,6.22
2023-04-02T01:01:47.580Z,6.16
2023-04-02T01:06:03.311Z,6.14
2023-04-02T01:10:22.808Z,6.00
2023-04-02T01:14:42.809Z,5.90
2023-04-02T01:18:56.985Z,5.86
2023-04-02T01:23:08.412Z,5.80
2023-04-02T01:27:19.905Z,5.65
2023-04-02T01:31:28.934Z,5.52
2023-04-02T01:35:39.292Z,5.43
2023-04-02T01:39:56.490Z,5.38
2023-04-02T01:44:06.901Z,5.34
2023-04-02T01:48:20.127Z,5.27
2023-04-02T01:52:38.799Z,5.26
2023-04-02T01:56:47.345Z,5.22
2023-04-02T02:00:57.926Z,5.18
2023-04-02T02:05:05.752Z,5.14
2023-04-02T02:09:19.561Z,5.13
2023-04-02T02:13:27.404Z,5.06
2023-04-02T02:17:35.367Z,5.01
2023-04-02T02:21:45.270Z,5.00
2023-04-02T02:25:53.645Z,4.87
2023-04-02T02:30:06.310Z,4.73
2023-04-02T02:34:19.434Z,4.66
2023-04-02T02:38:55.917Z,4.57
2023-04-02T02:43:06.754Z,4.51
2023-04-02T02:47:20.367Z,4.48
2023-04-02T02:51:39.276Z,4.42
2023-04-02T02:55:47.132Z,4.37
2023-04-02T02:59:56.749Z,4.31
2023-04-02T03:04:05.114Z,4.23
2023-04-02T03:08:21.182Z,4.17
2023-04-02T03:12:38.577Z,4.16
2023-04-02T03:16:49.276Z,4.10
2023-04-02T03:21:01.343Z,4.06
2023-04-02T03:25:16.477Z,3.97
2023-04-02T03:29:27.157Z,3.80
2023-04-02T03:33:37.484Z,3.68
2023-04-02T03:37:48.339Z,3.62
2023-04-02T03:41:58.665Z,3.55
2023-04-02T03:46:26.866Z,3.55
2023-04-02T03:50:39.312Z,3.55
2023-04-02T03:54:54.277Z,3.50
2023-04-02T03:59:13.188Z,3.46
2023-04-02T04:03:24.575Z,3.43
2023-04-02T04:07:36.389Z,3.40
2023-04-02T04:11:52.146Z,3.44
2023-04-02T04:16:04.664Z,3.47
2023-04-02T04:20:22.516Z,3.44
2023-04-02T04:24:33.438Z,3.40
2023-04-02T04:28:45.745Z,3.40
2023-04-02T04:32:58.640Z,3.40
2023-04-02T04:37:21.721Z,3.39
2023-04-02T04:41:33.377Z,3.31
2023-04-02T04:45:47.992Z,3.21
2023-04-02T04:49:58.429Z,3.09
2023-04-02T04:54:06.975Z,3.03
2023-04-02T04:58:23.354Z,3.05
2023-04-02T05:02:33.942Z,3.04
2023-04-02T05:06:44.262Z,3.00
2023-04-02T05:10:54.497Z,2.98
2023-04-02T05:15:06.078Z,3.02
2023-04-02T05:19:17.508Z,3.06
2023-04-02T05:23:29.299Z,3.12
2023-04-02T05:27:41.873Z,3.15
2023-04-02T05:31:52.365Z,3.16
2023-04-02T05:36:03.700Z,3.22
2023-04-02T05:40:21.065Z,3.27
2023-04-02T05:44:31.262Z,3.29
2023-04-02T05:48:43.566Z,3.33
2023-04-02T05:52:54.781Z,3.36
2023-04-02T05:57:06.154Z,3.36
2023-04-02T06:01:22.734Z,3.39
2023-04-02T06:05:34.917Z,3.40
2023-04-02T06:09:45.911Z,3.39
2023-04-02T06:13:53.508Z,3.39
2023-04-02T06:18:07.697Z,3.39
2023-04-02T06:22:23.078Z,3.41
2023-04-02T06:26:33.848Z,3.45
2023-04-02T06:30:45.303Z,3.47
2023-04-02T06:34:53.912Z,3.46
2023-04-02T06:39:07.120Z,3.44
2023-04-02T06:43:20.987Z,3.46
2023-04-02T06:47:33.662Z,3.44
2023-04-02T06:51:42.036Z,3.45
2023-04-02T06:55:52.248Z,3.47
2023-04-02T06:59:59.969Z,3.46
2023-04-02T07:04:09.012Z,3.45
2023-04-02T07:08:17.496Z,3.45
2023-04-02T07:12:28.699Z,3.44
2023-04-02T07:16:37.933Z,3.47
2023-04-02T07:20:46.346Z,3.47
2023-04-02T07:24:53.871Z,3.42
2023-04-02T07:29:02.596Z,3.40
2023-04-02T07:33:13.136Z,3.39
2023-04-02T07:37:20.878Z,3.37
2023-04-02T07:41:29.132Z,3.38
2023-04-02T07:45:37.641Z,3.41
2023-04-02T07:49:46.396Z,3.40
2023-04-02T07:53:56.207Z,3.43
2023-04-02T07:58:04.253Z,3.41
2023-04-02T08:02:22.738Z,3.36
2023-04-02T08:06:30.914Z,3.36
2023-04-02T08:10:44.003Z,3.32
2023-04-02T08:14:53.324Z,3.32
2023-04-02T08:19:02.115Z,3.27
2023-04-02T08:23:21.229Z,3.22
2023-04-02T08:27:29.834Z,3.22
2023-04-02T08:31:37.446Z,3.19
2023-04-02T08:35:45.516Z,3.19
2023-04-02T08:39:57.920Z,3.23
2023-04-02T08:44:32.519Z,3.25
2023-04-02T08:48:45.679Z,3.26
2023-04-02T08:52:54.623Z,3.33
2023-04-02T08:57:06.376Z,3.36
2023-04-02T09:01:23.583Z,3.38
2023-04-02T09:05:33.573Z,3.44
2023-04-02T09:09:42.090Z,3.49
2023-04-02T09:13:52.432Z,3.61
2023-04-02T09:18:07.861Z,3.76
2023-04-02T09:22:22.995Z,3.81
2023-04-02T09:26:33.217Z,3.88
2023-04-02T09:30:52.538Z,3.97
2023-04-02T09:35:25.468Z,3.98
2023-04-02T09:39:35.903Z,3.96
2023-04-02T09:43:43.569Z,3.97
2023-04-02T09:47:52.073Z,3.97
2023-04-02T09:52:22.854Z,3.96
2023-04-02T09:56:31.605Z,4.04
2023-04-02T10:00:42.084Z,4.10
2023-04-02T10:04:53.140Z,4.14
2023-04-02T10:09:02.032Z,4.17
2023-04-02T10:13:16.570Z,4.18
2023-04-02T10:17:27.308Z,4.18
2023-04-02T10:21:37.446Z,4.15
2023-04-02T10:25:56.645Z,4.11
2023-04-02T10:30:20.348Z,4.08
2023-04-02T10:34:35.912Z,4.03
2023-04-02T10:38:50.410Z,3.99
2023-04-02T10:43:16.539Z,4.00
2023-04-02T10:47:35.830Z,4.00
2023-04-02T10:51:47.603Z,3.99
2023-04-02T10:56:01.598Z,4.04
2023-04-02T11:00:20.383Z,4.08
2023-04-02T11:04:31.281Z,4.07
2023-04-02T11:08:45.994Z,4.05
2023-04-02T11:12:59.404Z,4.04
2023-04-02T11:17:07.624Z,4.07
2023-04-02T11:21:55.019Z,4.09
2023-04-02T11:26:41.468Z,4.12
2023-04-02T11:30:50.796Z,4.15
2023-04-02T11:35:42.007Z,4.15
2023-04-02T11:39:55.878Z,4.16
2023-04-02T11:44:15.448Z,4.16
2023-04-02T11:48:33.865Z,4.18
2023-04-02T11:52:53.786Z,4.22
2023-04-02T11:57:06.853Z,4.22
2023-04-02T12:01:57.411Z,4.21
2023-04-02T12:06:11.115Z,4.20
2023-04-02T12:10:21.942Z,4.23
2023-04-02T12:14:46.323Z,4.31
2023-04-02T12:18:56.079Z,4.40
2023-04-02T12:23:04.108Z,4.41
2023-04-02T12:27:22.863Z,4.41
2023-04-02T12:31:33.787Z,4.43
2023-04-02T12:35:42.063Z,4.52
2023-04-02T12:40:01.279Z,4.54
2023-04-02T12:44:16.037Z,4.48
2023-04-02T12:48:24.339Z,4.45
2023-04-02T12:52:32.906Z,4.45
2023-04-02T12:56:40.393Z,4.41
2023-04-02T13:00:49.429Z,4.37
2023-04-02T13:05:00.886Z,4.36
2023-04-02T13:09:23.484Z,4.40
2023-04-02T13:13:34.569Z,4.43
2023-04-02T13:17:48.163Z,4.45
2023-04-02T13:21:56.611Z,4.45
2023-04-02T13:26:11.525Z,4.47
2023-04-02T13:30:24.883Z,4.52
2023-04-02T13:34:33.590Z,4.54
2023-04-02T13:38:41.419Z,4.54
2023-04-02T13:42:50.169Z,4.54
2023-04-02T13:46:58.167Z,4.58
2023-04-02T13:51:06.628Z,4.63
2023-04-02T13:55:14.615Z,4.64
2023-04-02T13:59:22.389Z,4.66
2023-04-02T14:03:31.054Z,4.69
2023-04-02T14:07:47.213Z,4.77
2023-04-02T14:12:04.766Z,4.81
2023-04-02T14:16:32.286Z,4.81
2023-04-02T14:20:47.184Z,4.80
2023-04-02T14:25:01.426Z,4.82
2023-04-02T14:29:14.573Z,4.81
2023-04-02T14:33:29.411Z,4.78
2023-04-02T14:37:44.346Z,4.76
2023-04-02T14:41:56.635Z,4.80
2023-04-02T14:46:06.806Z,4.81
2023-04-02T14:50:18.177Z,4.81
2023-04-02T14:54:33.745Z,4.81
2023-04-02T14:58:42.328Z,4.86
2023-04-02T15:02:53.132Z,4.92
2023-04-02T15:07:06.612Z,4.97
2023-04-02T15:11:18.738Z,4.95
2023-04-02T15:15:40.292Z,4.91
2023-04-02T15:19:49.068Z,4.92
2023-04-02T15:24:02.217Z,4.97
2023-04-02T15:28:22.671Z,4.98
2023-04-02T15:32:39.915Z,4.95
2023-04-02T15:37:04.277Z,4.92
2023-04-02T15:41:16.965Z,4.93
2023-04-02T15:45:31.048Z,4.94
2023-04-02T15:49:44.960Z,4.94
2023-04-02T15:54:01.256Z,4.92
2023-04-02T15:58:24.557Z,4.96
2023-04-02T16:02:55.782Z,4.99
2023-04-02T16:07:20.650Z,4.98
2023-04-02T16:11:30.541Z,4.96
2023-04-02T16:15:45.332Z,4.97
2023-04-02T16:19:57.775Z,4.99
2023-04-02T16:24:07.617Z,5.00
2023-04-02T16:28:23.373Z,4.98
2023-04-02T16:32:46.589Z,4.97
2023-04-02T16:37:04.291Z,4.99
2023-04-02T16:41:22.208Z,4.99
2023-04-02T16:45:38.468Z,4.96
2023-04-02T16:49:54.019Z,4.94
2023-04-02T16:54:11.452Z,4.95
2023-04-02T16:58:33.525Z,4.96
2023-04-02T17:02:51.371Z,4.95
2023-04-02T17:07:04.508Z,4.91
2023-04-02T17:11:16.766Z,4.88
2023-04-02T17:15:28.954Z,4.89
2023-04-02T17:19:36.920Z,4.87
2023-04-02T17:23:56.378Z,4.83
2023-04-02T17:28:05.053Z,4.79
2023-04-02T17:32:20.718Z,4.80
2023-04-02T17:36:39.802Z,4.80
2023-04-02T17:40:53.154Z,4.76
2023-04-02T17:45:07.447Z,4.73
2023-04-02T17:49:23.231Z,4.73
2023-04-02T17:53:42.418Z,4.72
2023-04-02T17:58:01.520Z,4.72
2023-04-02T18:02:24.742Z,4.71
2023-04-02T18:06:38.089Z,4.72
2023-04-02T18:10:52.745Z,4.75
2023-04-02T18:15:15.107Z,4.76
2023-04-02T18:19:29.402Z,4.74
2023-04-02T18:23:49.235Z,4.72
2023-04-02T18:28:04.583Z,4.71
2023-04-02T18:32:29.673Z,4.70
2023-04-02T18:36:44.221Z,4.73
2023-04-02T18:41:03.983Z,4.77
2023-04-02T18:45:18.545Z,4.77
2023-04-02T18:49:33.988Z,4.74
2023-04-02T18:53:42.521Z,4.70
2023-04-02T18:57:53.440Z,4.66
2023-04-02T19:02:05.108Z,4.63
2023-04-02T19:06:19.613Z,4.64
2023-04-02T19:10:34.953Z,4.67
2023-04-02T19:14:43.035Z,4.67
2023-04-02T19:18:57.482Z,4.66
2023-04-02T19:23:13.864Z,4.61
2023-04-02T19:27:27.395Z,4.57
2023-04-02T19:31:46.250Z,4.54
2023-04-02T19:35:57.791Z,4.55
2023-04-02T19:40:18.847Z,4.60
2023-04-02T19:44:26.972Z,4.63
2023-04-02T19:48:42.815Z,4.64
2023-04-02T19:52:50.406Z,4.61
2023-04-02T19:56:58.460Z,4.57
2023-04-02T20:01:06.277Z,4.56
2023-04-02T20:05:15.188Z,4.56
2023-04-02T20:09:23.041Z,4.53
2023-04-02T20:13:31.318Z,4.49
2023-04-02T20:17:39.898Z,4.49
2023-04-02T20:21:47.525Z,4.48
2023-04-02T20:25:58.814Z,4.46
2023-04-02T20:30:09.286Z,4.40
2023-04-02T20:34:18.635Z,4.36
2023-04-02T20:38:27.630Z,4.31
2023-04-02T20:42:35.620Z,4.27
2023-04-02T20:46:44.214Z,4.23
2023-04-02T20:50:52.488Z,4.20
2023-04-02T20:55:00.327Z,4.17
2023-04-02T20:59:08.034Z,4.13
2023-04-02T21:03:15.884Z,4.08
2023-04-02T21:07:23.409Z,4.04
2023-04-02T21:11:31.463Z,3.99
2023-04-02T21:15:44.251Z,3.92
2023-04-02T21:19:52.268Z,3.84
2023-04-02T21:24:01.741Z,3.77
2023-04-02T21:28:09.862Z,3.69
2023-04-02T21:32:21.667Z,3.63
2023-04-02T21:36:31.681Z,3.55
2023-04-02T21:40:39.627Z,3.51
2023-04-02T21:44:47.484Z,3.46
2023-04-02T21:48:57.698Z,3.38
2023-04-02T21:53:05.256Z,3.30
2023-04-02T21:57:13.191Z,3.25
2023-04-02T22:01:27.411Z,3.21
2023-04-02T22:05:35.335Z,3.14
2023-04-02T22:09:44.062Z,3.09
2023-04-02T22:13:52.373Z,3.04
2023-04-02T22:18:01.117Z,2.99
2023-04-02T22:22:08.905Z,2.94
2023-04-02T22:26:18.163Z,2.91
2023-04-02T22:30:30.137Z,2.86
2023-04-02T22:34:44.153Z,2.80
2023-04-02T22:38:52.333Z,2.80
2023-04-02T22:43:00.449Z,2.76
2023-04-02T22:47:08.629Z,2.67
2023-04-02T22:51:18.563Z,2.57
2023-04-02T22:55:27.088Z,2.45
2023-04-02T22:59:34.799Z,2.31
2023-04-02T23:03:42.903Z,2.23
2023-04-02T23:07:52.286Z,2.15
2023-04-02T23:11:59.675Z,2.04
2023-04-02T23:16:10.005Z,1.96
2023-04-02T23:20:17.903Z,1.87
2023-04-02T23:24:25.582Z,1.79
2023-04-02T23:28:33.331Z,1.69
2023-04-02T23:32:40.655Z,1.59
2023-04-02T23:36:48.613Z,1.50
2023-04-02T23:40:57.040Z,1.45
2023-04-02T23:45:04.684Z,1.40
2023-04-02T23:49:14.533Z,1.35
2023-04-02T23:53:22.611Z,1.26
2023-04-02T23:57:30.633Z,1.20
